sensor_id;sensor_type;location;lat;lon;timestamp;temperature;humidity
24176;DHT22;12324;48.146;11.502;2023-01-19T00:00:33;-0.90;99.90
24176;DHT22;12324;48.146;11.502;2023-01-19T00:03:00;-0.90;99.90
24176;DHT22;12324;48.146;11.502;2023-01-19T00:05:26;-0.90;99.90
24176;DHT22;12324;48.146;11.502;2023-01-19T00:07:53;-1.00;99.90
24176;DHT22;12324;48.146;11.502;2023-01-19T00:10:19;-0.90;99.90
24176;DHT22;12324;48.146;11.502;2023-01-19T00:12:46;-0.90;99.90
24176;DHT22;12324;48.146;11.502;2023-01-19T00:15:13;-0.90;99.90
24176;DHT22;12324;48.146;11.502;2023-01-19T00:17:39;-0.90;99.90
24176;DHT22;12324;48.146;11.502;2023-01-19T00:20:08;-0.90;99.90
24176;DHT22;12324;48.146;11.502;2023-01-19T00:22:34;-0.90;99.90
24176;DHT22;12324;48.146;11.502;2023-01-19T00:25:01;-0.90;99.90
24176;DHT22;12324;48.146;11.502;2023-01-19T00:27:28;-0.90;99.90
24176;DHT22;12324;48.146;11.502;2023-01-19T00:30:00;-0.80;99.90
24176;DHT22;12324;48.146;11.502;2023-01-19T00:32:26;-0.90;99.90
24176;DHT22;12324;48.146;11.502;2023-01-19T00:34:53;-0.80;99.90
24176;DHT22;12324;48.146;11.502;2023-01-19T00:37:20;-0.90;99.90
24176;DHT22;12324;48.146;11.502;2023-01-19T00:39:47;-0.90;99.90
24176;DHT22;12324;48.146;11.502;2023-01-19T00:42:13;-0.90;99.90
24176;DHT22;12324;48.146;11.502;2023-01-19T00:44:58;-1.00;99.90
24176;DHT22;12324;48.146;11.502;2023-01-19T00:47:25;-1.00;99.90
24176;DHT22;12324;48.146;11.502;2023-01-19T00:49:51;-1.00;99.90
24176;DHT22;12324;48.146;11.502;2023-01-19T00:52:18;-1.00;99.90
24176;DHT22;12324;48.146;11.502;2023-01-19T00:54:45;-1.10;99.90
24176;DHT22;12324;48.146;11.502;2023-01-19T00:57:11;-1.10;99.90
24176;DHT22;12324;48.146;11.502;2023-01-19T00:59:38;-1.00;99.90
24176;DHT22;12324;48.146;11.502;2023-01-19T01:02:05;-1.10;99.90
24176;DHT22;12324;48.146;11.502;2023-01-19T01:04:32;-1.10;99.90
24176;DHT22;12324;48.146;11.502;2023-01-19T01:06:58;-1.10;99.90
24176;DHT22;12324;48.146;11.502;2023-01-19T01:09:25;-1.00;99.90
24176;DHT22;12324;48.146;11.502;2023-01-19T01:11:53;-1.00;99.90
24176;DHT22;12324;48.146;11.502;2023-01-19T01:14:19;-1.10;99.90
24176;DHT22;12324;48.146;11.502;2023-01-19T01:16:46;-1.10;99.90
24176;DHT22;12324;48.146;11.502;2023-01-19T01:19:13;-1.10;99.90
24176;DHT22;12324;48.146;11.502;2023-01-19T01:21:40;-1.10;99.90
24176;DHT22;12324;48.146;11.502;2023-01-19T01:24:07;-1.10;99.90
24176;DHT22;12324;48.146;11.502;2023-01-19T01:26:34;-1.10;99.90
24176;DHT22;12324;48.146;11.502;2023-01-19T01:29:01;-1.10;99.90
24176;DHT22;12324;48.146;11.502;2023-01-19T01:31:27;-1.10;99.90
24176;DHT22;12324;48.146;11.502;2023-01-19T01:33:54;-1.10;99.90
24176;DHT22;12324;48.146;11.502;2023-01-19T01:36:20;-1.20;99.90
24176;DHT22;12324;48.146;11.502;2023-01-19T01:38:48;-1.20;99.90
24176;DHT22;12324;48.146;11.502;2023-01-19T01:41:14;-1.20;99.90
24176;DHT22;12324;48.146;11.502;2023-01-19T01:43:50;-1.20;99.90
24176;DHT22;12324;48.146;11.502;2023-01-19T01:46:19;-1.30;99.90
24176;DHT22;12324;48.146;11.502;2023-01-19T01:56:34;-1.20;99.90
24176;DHT22;12324;48.146;11.502;2023-01-19T01:59:05;-1.30;99.90
24176;DHT22;12324;48.146;11.502;2023-01-19T02:01:33;-1.30;99.90
24176;DHT22;12324;48.146;11.502;2023-01-19T02:04:18;-1.30;99.90
24176;DHT22;12324;48.146;11.502;2023-01-19T02:06:46;-1.40;99.90
24176;DHT22;12324;48.146;11.502;2023-01-19T02:09:34;-1.40;99.90
24176;DHT22;12324;48.146;11.502;2023-01-19T02:12:21;-1.40;99.90
24176;DHT22;12324;48.146;11.502;2023-01-19T02:15:18;-1.40;99.90
24176;DHT22;12324;48.146;11.502;2023-01-19T02:17:45;-1.40;99.90
24176;DHT22;12324;48.146;11.502;2023-01-19T02:20:13;-1.40;99.90
24176;DHT22;12324;48.146;11.502;2023-01-19T02:22:46;-1.50;99.90
24176;DHT22;12324;48.146;11.502;2023-01-19T02:25:15;-1.50;99.90
24176;DHT22;12324;48.146;11.502;2023-01-19T02:27:43;-1.50;99.90
24176;DHT22;12324;48.146;11.502;2023-01-19T02:30:10;-1.50;99.90
24176;DHT22;12324;48.146;11.502;2023-01-19T02:32:38;-1.50;99.90
24176;DHT22;12324;48.146;11.502;2023-01-19T02:35:05;-1.50;99.90
24176;DHT22;12324;48.146;11.502;2023-01-19T02:37:35;-1.50;99.90
24176;DHT22;12324;48.146;11.502;2023-01-19T02:40:04;-1.50;99.90
24176;DHT22;12324;48.146;11.502;2023-01-19T02:42:41;-1.50;99.90
24176;DHT22;12324;48.146;11.502;2023-01-19T02:45:10;-1.50;99.90
24176;DHT22;12324;48.146;11.502;2023-01-19T02:47:40;-1.60;99.90
24176;DHT22;12324;48.146;11.502;2023-01-19T02:53:24;-1.60;99.90
24176;DHT22;12324;48.146;11.502;2023-01-19T02:56:25;-1.60;99.90
24176;DHT22;12324;48.146;11.502;2023-01-19T03:07:13;-1.60;99.90
24176;DHT22;12324;48.146;11.502;2023-01-19T03:09:52;-1.60;99.90
24176;DHT22;12324;48.146;11.502;2023-01-19T03:12:46;-1.60;99.90
24176;DHT22;12324;48.146;11.502;2023-01-19T03:15:59;-1.60;99.90
24176;DHT22;12324;48.146;11.502;2023-01-19T03:18:20;-1.60;99.90
24176;DHT22;12324;48.146;11.502;2023-01-19T03:20:50;-1.60;99.90
24176;DHT22;12324;48.146;11.502;2023-01-19T03:23:19;-1.60;99.90
24176;DHT22;12324;48.146;11.502;2023-01-19T03:25:48;-1.70;99.90
24176;DHT22;12324;48.146;11.502;2023-01-19T03:28:18;-1.70;99.90
24176;DHT22;12324;48.146;11.502;2023-01-19T03:30:51;-1.70;99.90
24176;DHT22;12324;48.146;11.502;2023-01-19T03:33:24;-1.70;99.90
24176;DHT22;12324;48.146;11.502;2023-01-19T03:36:00;-1.80;99.90
24176;DHT22;12324;48.146;11.502;2023-01-19T03:38:33;-1.80;99.90
24176;DHT22;12324;48.146;11.502;2023-01-19T03:41:02;-1.90;99.90
24176;DHT22;12324;48.146;11.502;2023-01-19T03:43:30;-1.90;99.90
24176;DHT22;12324;48.146;11.502;2023-01-19T03:45:59;-1.90;99.90
24176;DHT22;12324;48.146;11.502;2023-01-19T03:48:26;-2.00;99.90
24176;DHT22;12324;48.146;11.502;2023-01-19T03:50:54;-2.00;99.90
24176;DHT22;12324;48.146;11.502;2023-01-19T03:53:21;-2.00;99.90
24176;DHT22;12324;48.146;11.502;2023-01-19T03:55:51;-2.00;99.90
24176;DHT22;12324;48.146;11.502;2023-01-19T03:58:19;-2.00;99.90
24176;DHT22;12324;48.146;11.502;2023-01-19T04:00:47;-2.10;99.90
24176;DHT22;12324;48.146;11.502;2023-01-19T04:03:15;-2.10;99.90
24176;DHT22;12324;48.146;11.502;2023-01-19T04:05:44;-2.10;99.90
24176;DHT22;12324;48.146;11.502;2023-01-19T04:08:11;-2.10;99.90
24176;DHT22;12324;48.146;11.502;2023-01-19T04:10:38;-2.10;99.90
24176;DHT22;12324;48.146;11.502;2023-01-19T04:13:05;-2.00;99.90
24176;DHT22;12324;48.146;11.502;2023-01-19T04:15:32;-2.00;99.90
24176;DHT22;12324;48.146;11.502;2023-01-19T04:17:59;-2.10;99.90
24176;DHT22;12324;48.146;11.502;2023-01-19T04:20:27;-2.10;99.90
24176;DHT22;12324;48.146;11.502;2023-01-19T04:22:57;-2.10;99.90
24176;DHT22;12324;48.146;11.502;2023-01-19T04:25:24;-2.10;99.90
24176;DHT22;12324;48.146;11.502;2023-01-19T04:27:52;-2.10;99.90
24176;DHT22;12324;48.146;11.502;2023-01-19T04:30:19;-2.10;99.90
24176;DHT22;12324;48.146;11.502;2023-01-19T04:32:46;-2.10;99.90
24176;DHT22;12324;48.146;11.502;2023-01-19T04:35:12;-2.20;99.90
24176;DHT22;12324;48.146;11.502;2023-01-19T04:37:39;-2.20;99.90
24176;DHT22;12324;48.146;11.502;2023-01-19T04:40:06;-2.30;99.90
24176;DHT22;12324;48.146;11.502;2023-01-19T04:42:33;-2.30;99.90
24176;DHT22;12324;48.146;11.502;2023-01-19T04:45:00;-2.30;99.90
24176;DHT22;12324;48.146;11.502;2023-01-19T04:47:27;-2.40;99.90
24176;DHT22;12324;48.146;11.502;2023-01-19T04:49:53;-2.40;99.90
24176;DHT22;12324;48.146;11.502;2023-01-19T04:52:20;-2.40;99.90
24176;DHT22;12324;48.146;11.502;2023-01-19T04:54:46;-2.40;99.90
24176;DHT22;12324;48.146;11.502;2023-01-19T04:57:13;-2.40;99.90
24176;DHT22;12324;48.146;11.502;2023-01-19T04:59:40;-2.40;99.90
24176;DHT22;12324;48.146;11.502;2023-01-19T05:21:43;-2.50;99.90
24176;DHT22;12324;48.146;11.502;2023-01-19T05:24:10;-2.60;99.90
24176;DHT22;12324;48.146;11.502;2023-01-19T05:26:37;-2.50;99.90
24176;DHT22;12324;48.146;11.502;2023-01-19T05:29:03;-2.50;99.90
24176;DHT22;12324;48.146;11.502;2023-01-19T05:31:30;-2.50;99.90
24176;DHT22;12324;48.146;11.502;2023-01-19T05:33:57;-2.50;99.90
24176;DHT22;12324;48.146;11.502;2023-01-19T05:36:23;-2.50;99.90
24176;DHT22;12324;48.146;11.502;2023-01-19T05:38:50;-2.50;99.90
24176;DHT22;12324;48.146;11.502;2023-01-19T05:41:17;-2.60;99.90
24176;DHT22;12324;48.146;11.502;2023-01-19T05:43:43;-2.60;99.90
24176;DHT22;12324;48.146;11.502;2023-01-19T05:46:10;-2.60;99.90
24176;DHT22;12324;48.146;11.502;2023-01-19T05:48:37;-2.60;99.90
24176;DHT22;12324;48.146;11.502;2023-01-19T05:51:04;-2.60;99.90
24176;DHT22;12324;48.146;11.502;2023-01-19T05:53:31;-2.60;99.90
24176;DHT22;12324;48.146;11.502;2023-01-19T06:50:09;-2.70;99.90
24176;DHT22;12324;48.146;11.502;2023-01-19T06:52:36;-0.90;99.90
24176;DHT22;12324;48.146;11.502;2023-01-19T06:55:09;-0.30;99.90
24176;DHT22;12324;48.146;11.502;2023-01-19T06:57:39;-0.50;99.90
24176;DHT22;12324;48.146;11.502;2023-01-19T07:00:06;-0.60;99.90
24176;DHT22;12324;48.146;11.502;2023-01-19T07:02:34;-0.80;99.90
24176;DHT22;12324;48.146;11.502;2023-01-19T07:05:01;-1.00;99.90
24176;DHT22;12324;48.146;11.502;2023-01-19T07:07:28;-1.50;99.90
24176;DHT22;12324;48.146;11.502;2023-01-19T07:22:10;-1.80;99.90
24176;DHT22;12324;48.146;11.502;2023-01-19T07:24:36;-2.40;99.90
24176;DHT22;12324;48.146;11.502;2023-01-19T07:27:03;-2.40;99.90
24176;DHT22;12324;48.146;11.502;2023-01-19T07:29:30;-2.40;99.90
24176;DHT22;12324;48.146;11.502;2023-01-19T07:31:57;-2.50;99.90
24176;DHT22;12324;48.146;11.502;2023-01-19T07:34:24;-2.50;99.90
24176;DHT22;12324;48.146;11.502;2023-01-19T07:36:50;-2.50;99.90
24176;DHT22;12324;48.146;11.502;2023-01-19T07:39:17;-2.50;99.90
24176;DHT22;12324;48.146;11.502;2023-01-19T07:41:44;-2.50;99.90
24176;DHT22;12324;48.146;11.502;2023-01-19T07:44:10;-2.60;99.90
24176;DHT22;12324;48.146;11.502;2023-01-19T07:46:37;-2.60;99.90
24176;DHT22;12324;48.146;11.502;2023-01-19T07:49:04;-2.60;99.90
24176;DHT22;12324;48.146;11.502;2023-01-19T07:51:30;-2.60;99.90
24176;DHT22;12324;48.146;11.502;2023-01-19T07:53:57;-2.60;99.90
24176;DHT22;12324;48.146;11.502;2023-01-19T07:56:24;-2.60;99.90
24176;DHT22;12324;48.146;11.502;2023-01-19T07:58:53;-2.60;99.90
24176;DHT22;12324;48.146;11.502;2023-01-19T08:01:19;-2.60;99.90
24176;DHT22;12324;48.146;11.502;2023-01-19T08:03:47;-2.60;99.90
24176;DHT22;12324;48.146;11.502;2023-01-19T08:06:22;-2.60;99.90
24176;DHT22;12324;48.146;11.502;2023-01-19T08:08:49;-2.60;99.90
24176;DHT22;12324;48.146;11.502;2023-01-19T08:11:16;-2.60;99.90
24176;DHT22;12324;48.146;11.502;2023-01-19T08:13:42;-2.50;99.90
24176;DHT22;12324;48.146;11.502;2023-01-19T08:16:09;-2.50;99.90
24176;DHT22;12324;48.146;11.502;2023-01-19T08:18:36;-2.50;99.90
24176;DHT22;12324;48.146;11.502;2023-01-19T08:21:03;-2.40;99.90
24176;DHT22;12324;48.146;11.502;2023-01-19T08:23:30;-2.30;99.90
24176;DHT22;12324;48.146;11.502;2023-01-19T08:25:56;-2.30;99.90
24176;DHT22;12324;48.146;11.502;2023-01-19T08:28:23;-2.20;99.90
24176;DHT22;12324;48.146;11.502;2023-01-19T08:30:50;-2.20;99.90
24176;DHT22;12324;48.146;11.502;2023-01-19T08:33:22;-2.20;99.90
24176;DHT22;12324;48.146;11.502;2023-01-19T08:35:52;-2.20;99.90
24176;DHT22;12324;48.146;11.502;2023-01-19T08:38:19;-2.10;99.90
24176;DHT22;12324;48.146;11.502;2023-01-19T08:40:45;-2.20;99.90
24176;DHT22;12324;48.146;11.502;2023-01-19T08:43:14;-2.10;99.90
24176;DHT22;12324;48.146;11.502;2023-01-19T08:45:45;-2.10;99.90
24176;DHT22;12324;48.146;11.502;2023-01-19T08:48:19;-2.10;99.90
24176;DHT22;12324;48.146;11.502;2023-01-19T08:50:49;-2.10;99.90
24176;DHT22;12324;48.146;11.502;2023-01-19T08:53:16;-2.00;99.90
24176;DHT22;12324;48.146;11.502;2023-01-19T08:55:43;-2.00;99.90
24176;DHT22;12324;48.146;11.502;2023-01-19T08:58:09;-2.00;99.90
24176;DHT22;12324;48.146;11.502;2023-01-19T09:00:37;-2.00;99.90
24176;DHT22;12324;48.146;11.502;2023-01-19T09:03:06;-2.00;99.90
24176;DHT22;12324;48.146;11.502;2023-01-19T09:05:35;-2.00;99.90
24176;DHT22;12324;48.146;11.502;2023-01-19T09:08:04;-2.00;99.90
24176;DHT22;12324;48.146;11.502;2023-01-19T09:10:31;-2.00;99.90
24176;DHT22;12324;48.146;11.502;2023-01-19T09:13:05;-1.90;99.90
24176;DHT22;12324;48.146;11.502;2023-01-19T09:15:33;-1.80;99.90
24176;DHT22;12324;48.146;11.502;2023-01-19T09:18:04;-1.90;99.90
24176;DHT22;12324;48.146;11.502;2023-01-19T09:20:32;-1.90;99.90
24176;DHT22;12324;48.146;11.502;2023-01-19T09:23:01;-1.80;99.90
24176;DHT22;12324;48.146;11.502;2023-01-19T09:25:28;-1.90;99.90
24176;DHT22;12324;48.146;11.502;2023-01-19T09:27:55;-1.80;99.90
24176;DHT22;12324;48.146;11.502;2023-01-19T09:30:21;-1.80;99.90
24176;DHT22;12324;48.146;11.502;2023-01-19T09:32:48;-1.80;99.90
24176;DHT22;12324;48.146;11.502;2023-01-19T09:35:15;-1.70;99.90
24176;DHT22;12324;48.146;11.502;2023-01-19T09:37:45;-1.50;99.90
24176;DHT22;12324;48.146;11.502;2023-01-19T09:40:14;-1.50;99.90
24176;DHT22;12324;48.146;11.502;2023-01-19T09:42:49;-1.60;99.90
24176;DHT22;12324;48.146;11.502;2023-01-19T09:45:56;-1.50;99.90
24176;DHT22;12324;48.146;11.502;2023-01-19T09:51:08;-1.50;99.90
24176;DHT22;12324;48.146;11.502;2023-01-19T09:56:26;-1.40;99.90
24176;DHT22;12324;48.146;11.502;2023-01-19T10:07:02;-1.00;99.90
24176;DHT22;12324;48.146;11.502;2023-01-19T10:22:28;-1.00;99.90
24176;DHT22;12324;48.146;11.502;2023-01-19T10:24:58;-0.80;99.90
24176;DHT22;12324;48.146;11.502;2023-01-19T10:27:28;-0.80;99.90
24176;DHT22;12324;48.146;11.502;2023-01-19T10:29:56;-0.70;99.90
24176;DHT22;12324;48.146;11.502;2023-01-19T10:32:29;-0.60;99.90
24176;DHT22;12324;48.146;11.502;2023-01-19T10:34:57;-0.70;99.90
24176;DHT22;12324;48.146;11.502;2023-01-19T10:37:33;-0.50;99.90
24176;DHT22;12324;48.146;11.502;2023-01-19T10:42:55;-0.50;99.90
24176;DHT22;12324;48.146;11.502;2023-01-19T10:45:29;-0.50;99.90
24176;DHT22;12324;48.146;11.502;2023-01-19T10:47:59;-0.50;99.90
24176;DHT22;12324;48.146;11.502;2023-01-19T10:50:33;-0.40;99.90
24176;DHT22;12324;48.146;11.502;2023-01-19T10:53:02;-0.40;99.90
24176;DHT22;12324;48.146;11.502;2023-01-19T10:55:36;-0.30;99.90
24176;DHT22;12324;48.146;11.502;2023-01-19T10:58:05;-0.20;99.90
24176;DHT22;12324;48.146;11.502;2023-01-19T11:00:37;-0.20;99.90
24176;DHT22;12324;48.146;11.502;2023-01-19T11:03:23;-0.20;99.90
24176;DHT22;12324;48.146;11.502;2023-01-19T11:05:50;-0.10;99.90
24176;DHT22;12324;48.146;11.502;2023-01-19T12:14:30;0.10;99.90
24176;DHT22;12324;48.146;11.502;2023-01-19T12:17:02;1.60;99.90
24176;DHT22;12324;48.146;11.502;2023-01-19T12:19:48;1.40;99.90
24176;DHT22;12324;48.146;11.502;2023-01-19T12:22:21;1.60;99.90
24176;DHT22;12324;48.146;11.502;2023-01-19T12:24:59;1.60;99.90
24176;DHT22;12324;48.146;11.502;2023-01-19T12:27:42;1.60;99.90
24176;DHT22;12324;48.146;11.502;2023-01-19T12:30:23;1.70;99.90
24176;DHT22;12324;48.146;11.502;2023-01-19T12:32:51;1.50;99.90
24176;DHT22;12324;48.146;11.502;2023-01-19T12:35:55;1.40;99.90
24176;DHT22;12324;48.146;11.502;2023-01-19T12:38:36;1.50;99.90
24176;DHT22;12324;48.146;11.502;2023-01-19T12:44:34;1.30;99.90
24176;DHT22;12324;48.146;11.502;2023-01-19T12:46:41;1.30;99.90
24176;DHT22;12324;48.146;11.502;2023-01-19T12:49:27;1.30;99.90
24176;DHT22;12324;48.146;11.502;2023-01-19T13:03:02;1.10;99.90
24176;DHT22;12324;48.146;11.502;2023-01-19T13:13:21;0.70;99.90
24176;DHT22;12324;48.146;11.502;2023-01-19T13:15:48;1.10;99.90
24176;DHT22;12324;48.146;11.502;2023-01-19T13:18:21;1.10;99.90
24176;DHT22;12324;48.146;11.502;2023-01-19T13:20:53;1.00;99.90
24176;DHT22;12324;48.146;11.502;2023-01-19T13:23:25;0.80;99.90
24176;DHT22;12324;48.146;11.502;2023-01-19T13:26:00;0.90;99.90
24176;DHT22;12324;48.146;11.502;2023-01-19T13:28:38;0.80;99.90
24176;DHT22;12324;48.146;11.502;2023-01-19T13:31:06;0.80;99.90
24176;DHT22;12324;48.146;11.502;2023-01-19T22:51:25;0.80;99.90
24176;DHT22;12324;48.146;11.502;2023-01-19T22:53:52;-1.00;99.90
24176;DHT22;12324;48.146;11.502;2023-01-19T22:56:27;-1.10;99.90
24176;DHT22;12324;48.146;11.502;2023-01-19T22:58:54;-1.00;99.90
24176;DHT22;12324;48.146;11.502;2023-01-19T23:01:28;-1.00;99.90
24176;DHT22;12324;48.146;11.502;2023-01-19T23:03:56;-1.00;99.90
24176;DHT22;12324;48.146;11.502;2023-01-19T23:06:25;-1.00;99.90
24176;DHT22;12324;48.146;11.502;2023-01-19T23:08:54;-1.00;99.90
24176;DHT22;12324;48.146;11.502;2023-01-19T23:11:24;-1.00;99.90
24176;DHT22;12324;48.146;11.502;2023-01-19T23:13:52;-0.90;99.90
24176;DHT22;12324;48.146;11.502;2023-01-19T23:16:18;-0.90;99.90
24176;DHT22;12324;48.146;11.502;2023-01-19T23:18:45;-0.90;99.90
24176;DHT22;12324;48.146;11.502;2023-01-19T23:21:17;-0.90;99.90
24176;DHT22;12324;48.146;11.502;2023-01-19T23:23:44;-0.90;99.90
24176;DHT22;12324;48.146;11.502;2023-01-19T23:26:13;-0.90;99.90
24176;DHT22;12324;48.146;11.502;2023-01-19T23:28:41;-1.00;99.90
24176;DHT22;12324;48.146;11.502;2023-01-19T23:33:39;-1.10;99.90
24176;DHT22;12324;48.146;11.502;2023-01-19T23:36:10;-1.10;99.90
24176;DHT22;12324;48.146;11.502;2023-01-19T23:38:37;-1.10;99.90
24176;DHT22;12324;48.146;11.502;2023-01-19T23:41:04;-1.00;99.90
24176;DHT22;12324;48.146;11.502;2023-01-19T23:43:52;-1.00;99.90
24176;DHT22;12324;48.146;11.502;2023-01-19T23:46:19;-1.10;99.90
24176;DHT22;12324;48.146;11.502;2023-01-19T23:48:46;-1.20;99.90
24176;DHT22;12324;48.146;11.502;2023-01-19T23:51:18;-1.30;99.90
24176;DHT22;12324;48.146;11.502;2023-01-19T23:53:45;-1.30;99.90
24176;DHT22;12324;48.146;11.502;2023-01-19T23:56:14;-1.30;99.90
24176;DHT22;12324;48.146;11.502;2023-01-19T23:58:44;-1.30;99.90
